Time;durP1;ratioP1;P1;durP2;ratioP2;P2;SDS_P1;SDS_P2;PMS_P1;PMS_P2;Temp;Humidity;BMP_temperature;BMP_pressure;BME280_temperature;BME280_humidity;BME280_pressure;Samples;Min_cycle;Max_cycle;Signal;HPM_P1;HPM_P2
2022/04/11 00:01:31;;;;;;;8.25;5.47;;;14.40;57.30;;;;;;4993647;28;20038;-54
2022/04/11 00:03:57;;;;;;;9.40;6.47;;;14.40;57.30;;;;;;4993107;28;20464;-65
2022/04/11 00:06:23;;;;;;;10.27;5.88;;;14.30;57.20;;;;;;4992753;28;20041;-55
2022/04/11 00:08:48;;;;;;;11.23;6.20;;;14.30;56.90;;;;;;4992669;28;20022;-64
2022/04/11 00:11:14;;;;;;;10.25;5.78;;;14.40;56.60;;;;;;4984772;28;20086;-50
2022/04/11 00:13:40;;;;;;;9.82;5.88;;;14.30;56.70;;;;;;4972237;28;20022;-64
2022/04/11 00:16:07;;;;;;;10.27;6.22;;;14.30;56.80;;;;;;4972947;28;20070;-64
2022/04/11 00:18:34;;;;;;;10.40;6.32;;;14.30;56.80;;;;;;4974035;28;20408;-64
2022/04/11 00:20:59;;;;;;;7.25;6.00;;;14.20;56.80;;;;;;4975039;28;20042;-63
2022/04/11 00:23:25;;;;;;;8.65;5.90;;;14.30;56.90;;;;;;4976425;28;20027;-64
2022/04/11 00:25:51;;;;;;;7.75;5.35;;;14.20;57.10;;;;;;4977434;28;20105;-53
2022/04/11 00:28:16;;;;;;;7.55;5.40;;;14.20;57.20;;;;;;4977331;28;20035;-54
2022/04/11 00:30:42;;;;;;;8.73;5.97;;;14.20;57.40;;;;;;4977327;28;20038;-64
2022/04/11 00:33:07;;;;;;;8.50;5.45;;;14.20;57.60;;;;;;4977175;28;20042;-64
2022/04/11 00:35:33;;;;;;;10.02;6.05;;;14.20;57.60;;;;;;4976926;28;20019;-52
2022/04/11 00:37:58;;;;;;;10.52;5.97;;;14.10;57.50;;;;;;4976983;28;20088;-62
2022/04/11 00:40:24;;;;;;;9.90;5.70;;;14.20;57.60;;;;;;4977050;28;20084;-63
2022/04/11 00:42:50;;;;;;;6.93;6.13;;;14.10;57.70;;;;;;4977062;28;20029;-54
2022/04/11 00:45:16;;;;;;;9.88;5.63;;;14.10;57.70;;;;;;4977032;28;20022;-64
2022/04/11 00:47:42;;;;;;;9.63;5.93;;;14.10;57.50;;;;;;4977102;28;20472;-63
2022/04/11 00:50:10;;;;;;;10.48;5.93;;;14.10;57.50;;;;;;4976954;28;20128;-55
2022/04/11 00:52:44;;;;;;;8.27;5.22;;;14.10;57.50;;;;;;4976710;28;20019;-64
2022/04/11 00:55:10;;;;;;;9.40;5.38;;;14.00;57.30;;;;;;4976764;28;20090;-62
2022/04/11 00:57:36;;;;;;;10.05;5.72;;;14.00;57.30;;;;;;4976832;28;20077;-63
2022/04/11 01:00:07;;;;;;;9.77;5.55;;;14.10;57.20;;;;;;4976416;28;20035;-64
2022/04/11 01:02:34;;;;;;;8.13;5.15;;;14.00;57.10;;;;;;4976734;28;20437;-64
2022/04/11 01:05:00;;;;;;;10.40;5.03;;;14.00;57.20;;;;;;4976218;28;20029;-63
2022/04/11 01:07:26;;;;;;;9.57;6.00;;;14.00;57.20;;;;;;4976407;28;20023;-57
2022/04/11 01:09:51;;;;;;;9.93;6.00;;;14.00;57.30;;;;;;4976470;28;20034;-64
2022/04/11 01:12:18;;;;;;;8.10;5.60;;;14.00;57.50;;;;;;4976545;28;20023;-63
2022/04/11 01:14:43;;;;;;;8.60;5.22;;;14.00;57.40;;;;;;4976573;28;20373;-64
2022/04/11 01:17:10;;;;;;;10.73;5.53;;;14.00;57.70;;;;;;4976423;28;20038;-61
2022/04/11 01:19:35;;;;;;;7.97;5.30;;;14.00;57.40;;;;;;4976135;28;20051;-51
2022/04/11 01:22:01;;;;;;;8.02;5.13;;;13.90;58.10;;;;;;4976110;28;20034;-63
2022/04/11 01:24:29;;;;;;;8.93;5.75;;;14.00;58.00;;;;;;4976498;28;20023;-59
2022/04/11 01:26:54;;;;;;;7.53;5.45;;;13.90;57.70;;;;;;4976258;28;20023;-64
2022/04/11 01:29:21;;;;;;;9.18;5.80;;;13.90;57.60;;;;;;4976349;28;20030;-61
2022/04/11 01:31:47;;;;;;;7.63;5.45;;;13.90;57.90;;;;;;4975801;28;20027;-57
2022/04/11 01:34:13;;;;;;;9.63;5.75;;;13.90;57.60;;;;;;4976128;28;20484;-53
2022/04/11 01:36:38;;;;;;;8.95;6.13;;;13.90;57.80;;;;;;4975803;28;20034;-62
2022/04/11 01:39:04;;;;;;;8.38;5.72;;;13.90;57.90;;;;;;4976044;28;20030;-60
2022/04/11 01:41:29;;;;;;;7.88;6.25;;;13.90;57.70;;;;;;4975967;28;20066;-60
2022/04/11 01:43:55;;;;;;;7.30;5.28;;;13.80;58.00;;;;;;4976118;28;20026;-64
2022/04/11 01:46:20;;;;;;;7.40;5.85;;;13.80;58.30;;;;;;4975903;28;20037;-52
2022/04/11 01:48:46;;;;;;;9.48;6.57;;;13.80;58.40;;;;;;4975835;28;20495;-52
2022/04/11 01:51:13;;;;;;;10.57;6.10;;;13.80;58.20;;;;;;4975574;28;20472;-63
2022/04/11 01:53:39;;;;;;;9.27;6.05;;;13.70;58.10;;;;;;4975796;28;20026;-64
2022/04/11 01:56:06;;;;;;;11.10;6.10;;;13.70;58.20;;;;;;4975879;28;20110;-54
2022/04/11 01:58:31;;;;;;;8.30;5.95;;;13.70;58.30;;;;;;4975708;28;20023;-63
2022/04/11 02:00:58;;;;;;;10.10;6.10;;;13.60;58.50;;;;;;4975683;28;20082;-63
2022/04/11 02:03:25;;;;;;;10.05;6.05;;;13.60;58.80;;;;;;4975624;28;20464;-63
2022/04/11 02:05:51;;;;;;;8.43;6.60;;;13.60;58.90;;;;;;4975285;28;20052;-63
2022/04/11 02:08:17;;;;;;;8.90;6.55;;;13.60;59.00;;;;;;4975539;28;20439;-52
2022/04/11 02:10:43;;;;;;;8.15;6.47;;;13.60;59.00;;;;;;4975426;28;20461;-63
2022/04/11 02:13:09;;;;;;;9.63;6.45;;;13.50;59.20;;;;;;4975585;28;20026;-64
2022/04/11 02:15:34;;;;;;;8.35;6.72;;;13.50;59.20;;;;;;4975446;28;20369;-54
2022/04/11 02:18:01;;;;;;;12.70;7.13;;;13.50;59.30;;;;;;4975228;28;20515;-64
2022/04/11 02:20:26;;;;;;;8.90;6.30;;;13.60;59.30;;;;;;4974808;28;20472;-63
2022/04/11 02:22:57;;;;;;;9.43;6.75;;;13.50;59.50;;;;;;4975210;28;20053;-64
2022/04/11 02:25:27;;;;;;;8.25;6.55;;;13.50;59.70;;;;;;4975411;28;20037;-63
2022/04/11 02:27:59;;;;;;;8.85;6.93;;;13.50;59.70;;;;;;4975018;28;20484;-64
2022/04/11 02:30:26;;;;;;;10.07;6.90;;;13.40;59.80;;;;;;4975165;28;20030;-51
2022/04/11 02:32:53;;;;;;;8.40;6.85;;;13.40;59.90;;;;;;4974869;28;20478;-64
2022/04/11 02:35:19;;;;;;;10.25;8.23;;;13.30;59.90;;;;;;4975000;28;20041;-64
2022/04/11 02:37:45;;;;;;;12.07;7.55;;;13.40;60.10;;;;;;4974930;28;20457;-51
2022/04/11 02:40:12;;;;;;;11.50;7.93;;;13.30;60.00;;;;;;4975003;28;20031;-55
2022/04/11 02:42:42;;;;;;;12.15;8.23;;;13.30;60.10;;;;;;4974407;28;20027;-53
2022/04/11 02:45:08;;;;;;;10.70;8.27;;;13.30;60.30;;;;;;4974763;28;20058;-63
2022/04/11 02:47:34;;;;;;;10.32;8.05;;;13.20;60.40;;;;;;4974778;28;20448;-56
2022/04/11 02:50:00;;;;;;;9.63;7.75;;;13.20;60.40;;;;;;4974729;28;20033;-52
2022/04/11 02:52:25;;;;;;;12.40;8.40;;;13.20;60.50;;;;;;4974477;28;20023;-53
2022/04/11 02:54:51;;;;;;;10.25;7.00;;;13.20;60.30;;;;;;4974915;28;20027;-54
2022/04/11 02:57:16;;;;;;;10.63;7.38;;;13.10;60.20;;;;;;4974632;28;20463;-51
2022/04/11 02:59:42;;;;;;;9.10;7.13;;;13.10;60.30;;;;;;4974624;28;20035;-54
2022/04/11 03:02:08;;;;;;;8.88;7.97;;;13.10;60.30;;;;;;4974497;28;20031;-57
2022/04/11 03:04:33;;;;;;;9.18;7.55;;;13.10;60.30;;;;;;4974270;28;20027;-53
2022/04/11 03:06:59;;;;;;;13.15;7.38;;;13.00;60.20;;;;;;4974557;28;20027;-50
2022/04/11 03:09:24;;;;;;;9.55;7.03;;;13.00;60.20;;;;;;4974723;28;20023;-55
2022/04/11 03:11:50;;;;;;;11.68;7.78;;;13.00;60.20;;;;;;4974308;28;20031;-52
2022/04/11 03:14:15;;;;;;;10.07;7.75;;;13.00;60.20;;;;;;4974518;28;20030;-51
2022/04/11 03:16:41;;;;;;;11.23;7.00;;;13.00;60.30;;;;;;4974196;28;20038;-54
2022/04/11 03:19:08;;;;;;;10.15;7.55;;;13.00;60.30;;;;;;4973907;28;20034;-53
2022/04/11 03:21:34;;;;;;;12.55;7.85;;;13.00;60.40;;;;;;4974480;28;20121;-54
2022/04/11 03:24:00;;;;;;;9.13;7.35;;;12.90;60.50;;;;;;4974261;28;20085;-53
2022/04/11 03:26:26;;;;;;;7.93;7.13;;;12.90;60.50;;;;;;4974567;28;20027;-63
2022/04/11 03:28:51;;;;;;;10.18;6.75;;;12.80;60.70;;;;;;4974152;28;20027;-62
2022/04/11 03:31:17;;;;;;;12.52;7.95;;;12.80;60.70;;;;;;4973997;28;20183;-52
2022/04/11 03:33:43;;;;;;;10.02;7.20;;;12.80;60.80;;;;;;4974254;28;20035;-63
2022/04/11 03:36:09;;;;;;;9.85;6.93;;;12.80;60.80;;;;;;4974313;28;20472;-52
2022/04/11 03:38:35;;;;;;;15.02;7.68;;;12.80;60.90;;;;;;4974153;28;20023;-56
2022/04/11 03:41:01;;;;;;;7.85;6.82;;;12.80;60.90;;;;;;4974194;28;20057;-60
2022/04/11 03:43:26;;;;;;;9.68;6.88;;;12.80;60.80;;;;;;4974081;28;20495;-53
2022/04/11 03:45:53;;;;;;;11.02;7.13;;;12.80;60.90;;;;;;4973690;28;20035;-53
2022/04/11 03:48:18;;;;;;;10.13;7.05;;;12.80;61.00;;;;;;4974050;28;20019;-62
2022/04/11 03:50:44;;;;;;;9.95;7.15;;;12.70;61.10;;;;;;4974270;28;20037;-52
2022/04/11 03:53:10;;;;;;;8.27;6.72;;;12.70;61.20;;;;;;4973928;28;20099;-61
2022/04/11 03:55:35;;;;;;;11.20;7.68;;;12.60;61.20;;;;;;4976819;28;20035;-62
2022/04/11 03:58:01;;;;;;;10.43;7.55;;;12.60;61.30;;;;;;4977928;28;20031;-61
2022/04/11 04:00:26;;;;;;;7.25;6.43;;;12.60;61.30;;;;;;4977725;28;20035;-57
2022/04/11 04:02:52;;;;;;;13.18;7.60;;;12.60;61.40;;;;;;4977780;28;20101;-61
2022/04/11 04:05:18;;;;;;;10.63;7.10;;;12.60;61.50;;;;;;4977771;28;20031;-53
2022/04/11 04:07:43;;;;;;;9.38;7.50;;;12.60;61.50;;;;;;4977678;28;20030;-61
2022/04/11 04:10:09;;;;;;;11.52;7.38;;;12.50;61.50;;;;;;4977757;28;20038;-61
2022/04/11 04:12:35;;;;;;;8.85;6.50;;;12.50;61.60;;;;;;4977702;28;20073;-52
2022/04/11 04:15:01;;;;;;;8.57;6.68;;;12.50;61.70;;;;;;4977260;28;20027;-51
2022/04/11 04:17:26;;;;;;;8.32;7.05;;;12.50;62.00;;;;;;4977784;28;20023;-52
2022/04/11 04:19:52;;;;;;;11.32;7.25;;;12.50;61.90;;;;;;4977202;28;20093;-63
2022/04/11 04:22:19;;;;;;;9.68;7.10;;;12.50;61.90;;;;;;4977755;28;20023;-63
2022/04/11 04:24:44;;;;;;;9.15;6.93;;;12.40;61.90;;;;;;4977468;28;20030;-53
2022/04/11 04:27:11;;;;;;;8.13;6.25;;;12.40;62.00;;;;;;4977232;28;20411;-55
2022/04/11 04:29:36;;;;;;;10.57;7.18;;;12.40;62.00;;;;;;4977018;28;20025;-52
2022/04/11 04:32:02;;;;;;;8.55;7.45;;;12.40;62.10;;;;;;4977184;28;20026;-50
2022/04/11 04:34:30;;;;;;;9.57;6.70;;;12.40;62.20;;;;;;4977471;28;20065;-63
2022/04/11 04:36:58;;;;;;;12.93;6.68;;;12.30;62.30;;;;;;4977283;28;20034;-53
2022/04/11 04:39:24;;;;;;;12.18;6.75;;;12.30;62.30;;;;;;4977136;28;20110;-49
2022/04/11 04:41:49;;;;;;;9.45;6.47;;;12.30;62.30;;;;;;4977133;28;20109;-51
2022/04/11 04:44:15;;;;;;;11.60;7.50;;;12.30;62.30;;;;;;4976797;28;20434;-53
2022/04/11 04:46:41;;;;;;;8.80;6.55;;;12.30;62.30;;;;;;4976971;28;20092;-56
2022/04/11 04:49:06;;;;;;;12.32;7.40;;;12.30;62.40;;;;;;4976941;28;20027;-57
2022/04/11 04:51:32;;;;;;;11.85;7.43;;;12.30;62.40;;;;;;4976980;28;20106;-58
2022/04/11 04:53:58;;;;;;;9.93;6.80;;;12.20;62.50;;;;;;4977004;28;20102;-50
2022/04/11 04:56:24;;;;;;;10.43;6.60;;;12.20;63.20;;;;;;4976866;28;20428;-55
2022/04/11 04:58:51;;;;;;;9.75;7.20;;;12.20;62.60;;;;;;4976520;28;20030;-61
2022/04/11 05:01:16;;;;;;;9.43;7.22;;;12.10;62.80;;;;;;4979548;28;20081;-55
2022/04/11 05:03:42;;;;;;;11.93;7.50;;;12.10;63.50;;;;;;4994082;28;20388;-63
2022/04/11 05:06:08;;;;;;;11.00;7.47;;;12.10;62.90;;;;;;4975698;28;20026;-63
2022/04/11 05:08:33;;;;;;;10.38;6.95;;;12.10;62.90;;;;;;4993944;28;20022;-63
2022/04/11 05:11:00;;;;;;;11.95;7.07;;;12.00;63.20;;;;;;4995990;28;20464;-63
2022/04/11 05:13:26;;;;;;;9.93;6.55;;;12.00;63.20;;;;;;4995906;28;20502;-60
2022/04/11 05:15:51;;;;;;;10.45;6.75;;;12.00;63.20;;;;;;4995868;28;20026;-60
2022/04/11 05:18:17;;;;;;;10.77;7.18;;;12.00;63.30;;;;;;4996127;28;20066;-60
2022/04/11 05:20:43;;;;;;;12.63;6.95;;;12.00;63.10;;;;;;4995755;28;20093;-63
2022/04/11 05:23:09;;;;;;;9.30;6.57;;;12.00;63.10;;;;;;4995992;28;20018;-61
2022/04/11 05:25:34;;;;;;;10.35;6.90;;;12.00;63.20;;;;;;4995872;28;20053;-57
2022/04/11 05:28:00;;;;;;;9.63;6.95;;;12.00;63.40;;;;;;4995572;28;20029;-51
2022/04/11 05:30:26;;;;;;;11.15;6.43;;;11.90;63.40;;;;;;4995734;28;20031;-52
2022/04/11 05:32:51;;;;;;;10.40;6.70;;;11.90;63.50;;;;;;4995559;28;20018;-60
2022/04/11 05:35:17;;;;;;;11.05;6.30;;;11.90;63.50;;;;;;4995623;28;20582;-53
2022/04/11 05:37:43;;;;;;;8.73;6.25;;;11.90;63.60;;;;;;4995490;28;20440;-63
2022/04/11 05:40:11;;;;;;;9.68;6.15;;;11.90;63.50;;;;;;4995332;28;20054;-58
2022/04/11 05:42:37;;;;;;;11.15;5.97;;;11.90;63.60;;;;;;4995077;28;20464;-51
2022/04/11 05:45:04;;;;;;;15.63;6.85;;;11.90;63.60;;;;;;4995455;28;20039;-63
2022/04/11 05:47:30;;;;;;;10.35;5.93;;;11.80;63.60;;;;;;4995248;28;20034;-60
2022/04/11 05:49:55;;;;;;;8.48;5.90;;;11.80;63.80;;;;;;4995067;28;20486;-59
2022/04/11 05:52:21;;;;;;;8.55;6.07;;;11.80;63.70;;;;;;4995238;28;20027;-52
2022/04/11 05:54:47;;;;;;;11.02;6.13;;;11.90;63.70;;;;;;4995255;28;20022;-51
2022/04/11 05:57:13;;;;;;;11.88;6.60;;;11.90;63.70;;;;;;4994827;28;20093;-63
2022/04/11 05:59:39;;;;;;;9.80;5.53;;;11.90;63.80;;;;;;4995136;28;20041;-63
2022/04/11 06:02:05;;;;;;;8.48;5.70;;;11.90;64.00;;;;;;4994789;28;20038;-53
2022/04/11 06:04:31;;;;;;;7.68;5.10;;;11.90;63.80;;;;;;4995114;28;20472;-53
2022/04/11 06:06:57;;;;;;;10.35;5.97;;;11.90;63.80;;;;;;4994806;28;20026;-59
2022/04/11 06:09:22;;;;;;;8.30;5.32;;;11.90;63.80;;;;;;4994978;28;20023;-56
2022/04/11 06:11:48;;;;;;;8.77;5.15;;;12.00;63.90;;;;;;4994112;28;20074;-58
2022/04/11 06:14:13;;;;;;;10.40;4.85;;;12.00;63.90;;;;;;4995018;28;20088;-56
2022/04/11 06:16:39;;;;;;;7.25;4.70;;;12.00;63.60;;;;;;4994606;28;20038;-62
2022/04/11 06:19:04;;;;;;;8.77;4.93;;;12.00;63.40;;;;;;4993591;28;20428;-60
2022/04/11 06:21:30;;;;;;;7.65;4.57;;;12.10;63.30;;;;;;4994542;28;20530;-62
2022/04/11 06:23:56;;;;;;;11.48;5.35;;;12.10;63.30;;;;;;4994508;28;20022;-58
2022/04/11 06:26:21;;;;;;;14.38;5.35;;;12.10;63.20;;;;;;4994061;28;20065;-62
2022/04/11 06:28:47;;;;;;;10.45;5.50;;;12.10;63.10;;;;;;4994716;28;20085;-63
2022/04/11 06:31:15;;;;;;;8.43;4.97;;;12.10;63.20;;;;;;4994231;28;20045;-63
2022/04/11 06:33:41;;;;;;;13.38;5.53;;;12.20;63.00;;;;;;4994462;28;20101;-59
2022/04/11 06:36:07;;;;;;;7.40;4.47;;;12.20;62.70;;;;;;4994423;28;20447;-63
2022/04/11 06:38:33;;;;;;;9.10;4.80;;;12.30;62.80;;;;;;4976694;28;20089;-59
2022/04/11 06:40:59;;;;;;;9.50;4.78;;;12.30;62.90;;;;;;4993761;28;20105;-63
2022/04/11 06:43:25;;;;;;;10.02;5.30;;;12.30;62.90;;;;;;4994510;28;20025;-63
2022/04/11 06:45:51;;;;;;;8.95;4.80;;;12.30;62.80;;;;;;4994196;28;20034;-63
2022/04/11 06:48:16;;;;;;;10.30;4.75;;;12.40;62.80;;;;;;4994278;28;20392;-53
2022/04/11 06:50:42;;;;;;;6.82;4.57;;;12.40;62.50;;;;;;4994065;28;20035;-62
2022/04/11 06:53:09;;;;;;;8.27;4.47;;;12.40;62.10;;;;;;4993899;28;20015;-63
2022/04/11 06:55:35;;;;;;;11.50;4.43;;;12.50;62.30;;;;;;4993749;28;20041;-59
2022/04/11 06:58:01;;;;;;;11.77;5.13;;;12.50;62.30;;;;;;4994123;28;20018;-63
2022/04/11 07:00:27;;;;;;;8.68;4.88;;;12.60;62.10;;;;;;4993975;28;20117;-58
2022/04/11 07:02:53;;;;;;;7.78;4.15;;;12.60;62.00;;;;;;4993814;28;20093;-63
2022/04/11 07:05:18;;;;;;;8.13;4.75;;;12.50;62.30;;;;;;4994009;28;20495;-62
2022/04/11 07:07:44;;;;;;;8.20;3.92;;;12.60;62.70;;;;;;4993780;28;20476;-63
2022/04/11 07:10:10;;;;;;;7.97;4.75;;;12.70;62.40;;;;;;4993667;28;20443;-61
2022/04/11 07:12:42;;;;;;;10.15;4.35;;;12.70;62.50;;;;;;4993822;28;20050;-61
2022/04/11 07:15:08;;;;;;;9.43;4.20;;;12.80;62.10;;;;;;4993916;28;20056;-62
2022/04/11 07:17:34;;;;;;;7.28;4.10;;;12.80;62.60;;;;;;4993632;28;20029;-64
2022/04/11 07:20:01;;;;;;;7.88;3.72;;;12.80;62.20;;;;;;4993603;28;20050;-63
2022/04/11 07:22:26;;;;;;;7.80;4.15;;;12.90;61.90;;;;;;4993485;28;20029;-64
2022/04/11 07:24:52;;;;;;;8.00;3.97;;;12.90;61.70;;;;;;4993406;28;20031;-64
2022/04/11 07:27:18;;;;;;;7.15;3.50;;;13.00;61.20;;;;;;4994040;28;20026;-65
2022/04/11 07:29:43;;;;;;;8.75;3.40;;;13.10;60.80;;;;;;4993375;28;20029;-65
2022/04/11 07:32:09;;;;;;;8.20;3.65;;;13.10;60.60;;;;;;4993576;28;20039;-64
2022/04/11 07:34:35;;;;;;;9.70;3.63;;;13.10;61.10;;;;;;4993827;28;20023;-65
2022/04/11 07:37:00;;;;;;;6.70;3.22;;;13.20;61.80;;;;;;4993573;28;20026;-64
2022/04/11 07:39:26;;;;;;;7.63;3.53;;;13.30;60.10;;;;;;4993291;28;20049;-58
2022/04/11 07:41:55;;;;;;;7.45;3.13;;;13.30;60.20;;;;;;4993527;28;20026;-64
2022/04/11 07:44:21;;;;;;;5.25;2.92;;;13.40;59.90;;;;;;4993561;28;20022;-64
2022/04/11 07:46:47;;;;;;;4.25;2.60;;;13.40;59.70;;;;;;4993801;28;20357;-65
2022/04/11 07:49:12;;;;;;;7.50;3.58;;;13.50;60.50;;;;;;4993380;28;20598;-64
2022/04/11 07:51:38;;;;;;;4.85;2.72;;;13.50;59.70;;;;;;4975865;28;20121;-65
2022/04/11 07:54:03;;;;;;;6.38;3.13;;;13.60;59.60;;;;;;4993050;28;20023;-61
2022/04/11 07:56:29;;;;;;;3.92;2.40;;;13.60;58.50;;;;;;4993616;28;20037;-64
2022/04/11 07:58:55;;;;;;;6.63;2.15;;;13.70;59.20;;;;;;4993258;28;20023;-56
2022/04/11 08:01:22;;;;;;;5.68;2.85;;;13.70;59.60;;;;;;4993295;28;20035;-65
2022/04/11 08:03:47;;;;;;;4.68;2.20;;;13.80;60.50;;;;;;4993196;28;20468;-64
2022/04/11 08:06:13;;;;;;;5.35;2.30;;;13.80;59.50;;;;;;4993307;28;20117;-64
2022/04/11 08:08:46;;;;;;;5.63;2.47;;;13.90;59.00;;;;;;4992894;28;20029;-65
2022/04/11 08:11:16;;;;;;;7.40;2.65;;;13.90;58.50;;;;;;4993438;28;20088;-64
2022/04/11 08:13:42;;;;;;;9.43;2.75;;;14.00;58.10;;;;;;4993192;28;20475;-62
2022/04/11 08:16:08;;;;;;;4.93;2.50;;;14.00;57.30;;;;;;4993168;28;20029;-65
2022/04/11 08:18:34;;;;;;;6.75;2.50;;;14.00;57.50;;;;;;4993204;28;20042;-64
2022/04/11 08:21:03;;;;;;;6.63;3.00;;;13.80;56.10;;;;;;4993105;28;20081;-64
2022/04/11 08:23:29;;;;;;;5.93;2.70;;;13.40;56.70;;;;;;4992905;28;20030;-64
2022/04/11 08:25:55;;;;;;;5.68;2.30;;;13.40;57.80;;;;;;4993341;28;20057;-64
2022/04/11 08:28:20;;;;;;;4.75;2.53;;;13.50;58.00;;;;;;4993349;28;20492;-64
2022/04/11 08:30:46;;;;;;;6.40;2.72;;;13.50;56.70;;;;;;4993263;28;20507;-65
2022/04/11 08:33:13;;;;;;;6.15;2.30;;;13.30;57.70;;;;;;4993086;28;20022;-64
2022/04/11 08:35:38;;;;;;;7.68;2.60;;;13.30;60.70;;;;;;4993022;28;20027;-64
2022/04/11 08:38:04;;;;;;;5.50;1.60;;;13.50;58.30;;;;;;4992614;28;20038;-61
2022/04/11 08:40:30;;;;;;;7.72;2.47;;;13.80;61.20;;;;;;4993034;28;20043;-63
2022/04/11 08:42:55;;;;;;;7.95;2.90;;;13.70;57.40;;;;;;4996027;28;20044;-63
2022/04/11 08:45:23;;;;;;;3.00;1.70;;;13.80;56.40;;;;;;4996495;28;20535;-64
2022/04/11 08:47:56;;;;;;;4.18;1.88;;;13.90;61.90;;;;;;4996788;28;20089;-64
2022/04/11 08:50:23;;;;;;;4.45;2.42;;;14.10;60.10;;;;;;4996193;28;20042;-64
2022/04/11 08:52:50;;;;;;;4.82;2.25;;;14.20;56.70;;;;;;4996631;28;20026;-64
2022/04/11 08:55:16;;;;;;;4.38;1.77;;;13.60;55.00;;;;;;4996429;28;20034;-66
2022/04/11 08:57:41;;;;;;;4.50;1.58;;;14.00;60.50;;;;;;4996350;28;20026;-63
2022/04/11 09:00:12;;;;;;;2.65;1.75;;;14.00;54.60;;;;;;4996015;28;20092;-62
2022/04/11 09:02:39;;;;;;;4.35;1.80;;;13.70;56.20;;;;;;4996139;28;20440;-64
2022/04/11 09:05:05;;;;;;;4.45;1.75;;;13.70;60.90;;;;;;4996122;28;20026;-64
2022/04/11 09:07:51;;;;;;;4.30;1.98;;;13.90;58.80;;;;;;4996174;28;20113;-63
2022/04/11 09:10:37;;;;;;;3.95;2.10;;;14.10;56.80;;;;;;4995793;28;20113;-60
2022/04/11 09:13:08;;;;;;;4.07;1.88;;;14.10;55.10;;;;;;4995454;28;20121;-59
2022/04/11 09:15:45;;;;;;;4.15;2.05;;;14.20;55.70;;;;;;4995926;28;20026;-61
2022/04/11 09:18:10;;;;;;;4.55;1.90;;;13.80;54.90;;;;;;4995950;28;20396;-54
2022/04/11 09:20:41;;;;;;;5.57;1.73;;;13.70;55.20;;;;;;4995525;28;20042;-64
2022/04/11 09:23:21;;;;;;;4.53;1.95;;;13.40;54.50;;;;;;4995749;28;20423;-52
2022/04/11 09:25:47;;;;;;;3.53;2.00;;;13.40;55.00;;;;;;4995871;28;20029;-64
2022/04/11 09:28:12;;;;;;;9.63;2.30;;;13.40;55.90;;;;;;4978069;28;20105;-64
2022/04/11 09:30:40;;;;;;;5.97;2.13;;;13.70;55.30;;;;;;4995621;28;20129;-61
2022/04/11 09:33:08;;;;;;;3.42;2.10;;;13.50;56.20;;;;;;4995445;28;20023;-61
2022/04/11 09:35:43;;;;;;;8.27;2.30;;;13.50;55.50;;;;;;4995271;28;20073;-63
2022/04/11 09:38:20;;;;;;;6.03;1.98;;;13.30;55.60;;;;;;4995540;28;20105;-62
2022/04/11 09:40:50;;;;;;;5.60;2.25;;;13.70;60.00;;;;;;4995327;28;20483;-63
2022/04/11 09:43:17;;;;;;;5.43;2.08;;;14.00;54.20;;;;;;4995514;28;20027;-60
2022/04/11 09:45:45;;;;;;;3.00;1.90;;;13.40;53.90;;;;;;4995233;28;20027;-65
2022/04/11 09:48:25;;;;;;;7.25;2.05;;;13.50;56.20;;;;;;4995153;28;20033;-55
2022/04/11 09:50:52;;;;;;;6.80;2.28;;;13.60;54.90;;;;;;4995087;28;20042;-61
2022/04/11 09:53:20;;;;;;;7.50;2.25;;;13.50;54.20;;;;;;4995064;28;20026;-62
2022/04/11 09:55:48;;;;;;;4.88;2.15;;;13.40;54.80;;;;;;4995037;28;20539;-58
2022/04/11 09:58:14;;;;;;;6.30;1.70;;;13.70;54.80;;;;;;4994994;28;20048;-64
2022/04/11 10:00:42;;;;;;;3.38;1.45;;;13.60;53.20;;;;;;4994821;28;20035;-62
2022/04/11 10:03:08;;;;;;;4.78;1.80;;;13.90;57.30;;;;;;4994675;28;20030;-65
2022/04/11 10:05:38;;;;;;;3.15;1.50;;;14.00;55.70;;;;;;4995142;28;20026;-66
2022/04/11 10:08:06;;;;;;;7.25;1.90;;;14.30;58.20;;;;;;4994858;28;20439;-66
2022/04/11 10:10:38;;;;;;;7.90;1.50;;;14.60;53.40;;;;;;4994957;28;20057;-65
2022/04/11 10:13:06;;;;;;;3.78;1.73;;;14.70;56.20;;;;;;4994557;28;20522;-62
2022/04/11 10:15:32;;;;;;;5.75;2.13;;;14.40;51.00;;;;;;4994753;28;20026;-57
2022/04/11 10:17:58;;;;;;;5.47;1.63;;;14.00;51.90;;;;;;4994684;28;20041;-58
2022/04/11 10:20:29;;;;;;;4.90;1.75;;;14.10;55.00;;;;;;4994635;28;20072;-59
2022/04/11 10:23:10;;;;;;;3.58;1.55;;;14.40;54.00;;;;;;4994746;28;20471;-65
2022/04/11 10:25:44;;;;;;;4.22;1.50;;;14.20;50.70;;;;;;4994677;28;20033;-58
2022/04/11 10:28:18;;;;;;;4.13;1.55;;;14.30;57.20;;;;;;4994375;28;20037;-66
2022/04/11 10:30:45;;;;;;;5.75;1.60;;;14.90;50.70;;;;;;4994773;28;20027;-65
2022/04/11 10:33:11;;;;;;;3.70;1.65;;;15.30;54.40;;;;;;4994154;28;20469;-65
2022/04/11 10:35:42;;;;;;;4.43;1.85;;;15.00;48.30;;;;;;4994395;28;20022;-65
2022/04/11 10:38:09;;;;;;;5.20;1.75;;;14.80;49.50;;;;;;4994167;28;20494;-65
2022/04/11 10:40:37;;;;;;;5.57;1.45;;;14.70;50.40;;;;;;4994177;28;20104;-64
2022/04/11 10:43:08;;;;;;;3.80;1.23;;;14.70;48.50;;;;;;4994412;28;20014;-57
2022/04/11 10:45:40;;;;;;;4.35;1.40;;;14.40;48.00;;;;;;4994217;28;20476;-66
2022/04/11 10:48:08;;;;;;;2.75;1.27;;;14.30;47.70;;;;;;4993737;28;20018;-60
2022/04/11 10:50:34;;;;;;;3.95;1.50;;;14.80;55.50;;;;;;4994394;28;20138;-64
2022/04/11 10:53:24;;;;;;;4.53;1.23;;;15.30;52.60;;;;;;4994118;28;20062;-65
2022/04/11 10:56:16;;;;;;;5.72;1.30;;;15.30;48.10;;;;;;4994181;28;20124;-62
2022/04/11 10:58:43;;;;;;;4.47;2.00;;;14.90;49.80;;;;;;4989164;28;20045;-65
2022/04/11 11:01:09;;;;;;;6.40;1.95;;;15.00;49.30;;;;;;4986399;28;20084;-57
2022/04/11 11:03:35;;;;;;;5.03;1.95;;;14.80;47.80;;;;;;4980677;28;20106;-57
2022/04/11 11:06:18;;;;;;;5.22;1.70;;;14.80;50.10;;;;;;4986763;28;20519;-67
2022/04/11 11:08:44;;;;;;;5.53;1.80;;;14.90;52.80;;;;;;4980002;28;20150;-63
2022/04/11 11:11:24;;;;;;;8.27;2.17;;;15.10;48.90;;;;;;4976741;28;20085;-52
2022/04/11 11:13:51;;;;;;;5.60;1.48;;;15.00;50.00;;;;;;4991172;28;20026;-64
2022/04/11 11:16:17;;;;;;;3.40;0.90;;;15.10;47.70;;;;;;4975961;28;20078;-65
2022/04/11 11:18:55;;;;;;;5.65;1.80;;;15.30;56.00;;;;;;4987175;28;20047;-65
2022/04/11 11:21:44;;;;;;;3.25;1.55;;;15.30;47.40;;;;;;4979935;28;20042;-65
2022/04/11 11:24:11;;;;;;;6.40;1.77;;;15.20;46.90;;;;;;4976467;28;20027;-61
2022/04/11 11:26:45;;;;;;;2.58;1.35;;;14.90;46.60;;;;;;4985427;28;20108;-67
2022/04/11 11:29:25;;;;;;;4.90;1.80;;;14.80;48.90;;;;;;4990502;28;20134;-63
2022/04/11 11:32:12;;;;;;;6.00;1.77;;;14.90;48.20;;;;;;4977827;28;20050;-65
2022/04/11 11:34:38;;;;;;;4.82;1.58;;;15.00;48.80;;;;;;4987760;28;20026;-62
2022/04/11 11:37:10;;;;;;;4.20;1.67;;;15.30;50.80;;;;;;4979214;28;20500;-63
2022/04/11 11:39:38;;;;;;;5.43;2.13;;;15.20;49.00;;;;;;4980301;28;20030;-62
2022/04/11 11:42:14;;;;;;;3.33;1.10;;;15.40;49.10;;;;;;4986906;28;20065;-65
2022/04/11 11:44:43;;;;;;;5.35;1.58;;;15.70;56.90;;;;;;4983908;28;20030;-67
2022/04/11 11:47:09;;;;;;;7.07;2.40;;;15.90;51.50;;;;;;4977032;28;20027;-59
2022/04/11 11:49:49;;;;;;;4.55;1.75;;;15.80;46.60;;;;;;4985871;28;20034;-62
2022/04/11 11:52:20;;;;;;;4.43;2.17;;;15.60;51.40;;;;;;4975559;28;20061;-62
2022/04/11 11:54:48;;;;;;;6.72;1.70;;;15.50;47.70;;;;;;4978274;28;20425;-63
2022/04/11 11:57:22;;;;;;;6.07;2.13;;;15.30;49.20;;;;;;4983538;28;20412;-64
2022/04/11 11:59:59;;;;;;;4.85;1.17;;;15.20;48.50;;;;;;4984119;28;20558;-56
2022/04/11 12:05:26;;;;;;;2.85;1.10;;;15.90;54.30;;;;;;4983983;28;20085;-66
2022/04/11 12:08:17;;;;;;;4.72;1.52;;;15.70;54.40;;;;;;4972856;28;20124;-58
2022/04/11 12:10:44;;;;;;;4.82;1.75;;;15.50;47.60;;;;;;4956149;28;20029;-66
2022/04/11 12:13:10;;;;;;;3.35;1.67;;;15.30;46.90;;;;;;4979796;28;20093;-56
2022/04/11 12:15:36;;;;;;;2.85;1.55;;;15.30;46.70;;;;;;4981297;28;20118;-55
2022/04/11 12:18:07;;;;;;;4.25;1.75;;;15.60;53.20;;;;;;4978643;28;20035;-66
2022/04/11 12:20:35;;;;;;;4.57;1.73;;;15.70;47.60;;;;;;4990489;28;20051;-64
2022/04/11 12:23:04;;;;;;;4.38;2.08;;;16.00;48.80;;;;;;4982166;28;20387;-65
2022/04/11 12:25:35;;;;;;;3.45;2.00;;;15.90;49.20;;;;;;4984906;28;20054;-62
2022/04/11 12:28:17;;;;;;;3.72;1.80;;;16.20;46.70;;;;;;4989554;28;20506;-65
2022/04/11 12:30:46;;;;;;;27.35;3.38;;;16.20;46.50;;;;;;4990444;28;20173;-60
2022/04/11 12:33:29;;;;;;;4.03;2.15;;;15.70;50.70;;;;;;4982906;28;20018;-67
2022/04/11 12:36:26;;;;;;;5.38;2.75;;;15.80;50.30;;;;;;4989315;28;20097;-64
2022/04/11 12:38:57;;;;;;;5.80;2.55;;;16.00;50.70;;;;;;4979884;28;20037;-64
2022/04/11 12:41:26;;;;;;;6.70;2.63;;;16.20;50.20;;;;;;4985133;28;20500;-65
2022/04/11 12:44:34;;;;;;;5.70;2.70;;;16.30;50.00;;;;;;4988499;28;20105;-67
2022/04/11 12:47:00;;;;;;;5.20;3.08;;;16.30;49.60;;;;;;4974379;28;20166;-65
2022/04/11 12:49:41;;;;;;;8.63;2.60;;;16.30;49.50;;;;;;4983729;28;20121;-67